Time;durP1;ratioP1;P1;durP2;ratioP2;P2;SDS_P1;SDS_P2;PMS_P1;PMS_P2;Temp;Humidity;BMP_temperature;BMP_pressure;BME280_temperature;BME280_humidity;BME280_pressure;Samples;Min_cycle;Max_cycle;Signal;HPM_P1;HPM_P2
2023/03/01 00:00:11;;;;;;;;;;;4.90;64.60;;;;;;5113100;28;19937;-89
2023/03/01 00:02:37;;;;;;;;;;;4.90;64.40;;;;;;5113911;28;20038;-88
2023/03/01 00:05:03;;;;;;;;;;;4.80;64.70;;;;;;5114042;28;20455;-89
2023/03/01 00:07:28;;;;;;;;;;;4.80;64.70;;;;;;5114310;28;19947;-89
2023/03/01 00:09:54;;;;;;;;;;;4.70;64.80;;;;;;5111250;28;19951;-88
2023/03/01 00:12:19;;;;;;;;;;;4.70;64.80;;;;;;5093561;28;19963;-89
2023/03/01 00:14:45;;;;;;;;;;;4.70;64.60;;;;;;5093625;28;20322;-89
2023/03/01 00:17:11;;;;;;;;;;;4.80;64.70;;;;;;5075363;28;19941;-89
2023/03/01 00:19:37;;;;;;;;;;;4.80;64.60;;;;;;5093207;28;20399;-90
2023/03/01 00:22:02;;;;;;;;;;;4.90;64.50;;;;;;5111120;28;20386;-89
2023/03/01 00:24:28;;;;;;;;;;;5.00;64.30;;;;;;5107392;28;20000;-89
2023/03/01 00:26:55;;;;;;;;;;;5.00;64.20;;;;;;5093376;28;20008;-90
2023/03/01 00:29:21;;;;;;;;;;;4.90;64.10;;;;;;5093318;28;19936;-90
2023/03/01 00:31:46;;;;;;;;;;;4.90;64.20;;;;;;5110204;28;20403;-89
2023/03/01 00:34:12;;;;;;;;;;;4.90;64.60;;;;;;5113523;28;19944;-89
2023/03/01 00:36:38;;;;;;;;;;;4.90;64.30;;;;;;5113881;28;19979;-89
2023/03/01 00:39:05;;;;;;;;;;;4.90;64.30;;;;;;5113592;28;20309;-90
2023/03/01 00:41:30;;;;;;;;;;;4.80;64.50;;;;;;5097917;28;19946;-90
2023/03/01 00:43:56;;;;;;;;;;;4.80;64.60;;;;;;5093464;28;20401;-89
2023/03/01 00:46:23;;;;;;;;;;;4.90;64.40;;;;;;5093417;28;19943;-89
2023/03/01 00:48:49;;;;;;;;;;;4.90;64.30;;;;;;5093440;28;19939;-88
2023/03/01 00:51:15;;;;;;;;;;;5.00;64.20;;;;;;5104698;28;20301;-88
2023/03/01 00:53:41;;;;;;;;;;;5.00;64.20;;;;;;5113371;28;19954;-89
2023/03/01 00:56:07;;;;;;;;;;;5.00;64.00;;;;;;5113454;28;19934;-89
2023/03/01 00:58:33;;;;;;;;;;;5.00;63.90;;;;;;5113431;28;19941;-89
2023/03/01 01:01:00;;;;;;;;;;;5.10;63.80;;;;;;5102625;28;19954;-89
2023/03/01 01:03:26;;;;;;;;;;;5.20;63.60;;;;;;5092899;28;19985;-89
2023/03/01 01:05:52;;;;;;;;;;;5.20;63.40;;;;;;5093023;28;20030;-90
2023/03/01 01:08:18;;;;;;;;;;;5.20;63.20;;;;;;5093007;28;19941;-89
2023/03/01 01:10:44;;;;;;;;;;;5.20;63.20;;;;;;5100725;28;20043;-89
2023/03/01 01:13:10;;;;;;;;;;;5.30;63.20;;;;;;5113250;28;19969;-90
2023/03/01 01:15:35;;;;;;;;;;;5.20;63.10;;;;;;5113283;28;20075;-89
2023/03/01 01:18:01;;;;;;;;;;;5.20;63.50;;;;;;5113251;28;19943;-90
2023/03/01 01:20:27;;;;;;;;;;;5.10;63.50;;;;;;5108043;28;19946;-89
2023/03/01 01:22:52;;;;;;;;;;;5.10;63.60;;;;;;5092835;28;20385;-89
2023/03/01 01:25:18;;;;;;;;;;;5.10;63.60;;;;;;5092825;28;19953;-90
2023/03/01 01:27:44;;;;;;;;;;;5.10;63.10;;;;;;5092837;28;19938;-90
2023/03/01 01:30:10;;;;;;;;;;;5.00;63.50;;;;;;5077249;28;19948;-89
2023/03/01 01:32:35;;;;;;;;;;;4.80;63.80;;;;;;5113063;28;19957;-90
2023/03/01 01:35:01;;;;;;;;;;;4.60;64.40;;;;;;5113071;28;19934;-89
2023/03/01 01:37:31;;;;;;;;;;;4.60;65.10;;;;;;5113111;28;20398;-89
2023/03/01 01:40:00;;;;;;;;;;;4.50;65.40;;;;;;5112058;28;20029;-89
2023/03/01 01:42:26;;;;;;;;;;;4.30;65.90;;;;;;5092634;28;19936;-89
2023/03/01 01:45:10;;;;;;;;;;;4.20;66.50;;;;;;5095651;28;20416;-89
2023/03/01 01:47:35;;;;;;;;;;;4.10;67.00;;;;;;5096361;28;19942;-90
2023/03/01 01:50:01;;;;;;;;;;;4.10;67.40;;;;;;5097330;28;19941;-89
2023/03/01 01:52:29;;;;;;;;;;;4.10;67.30;;;;;;5116502;28;19968;-89
2023/03/01 01:54:55;;;;;;;;;;;4.10;67.20;;;;;;5116637;28;19942;-89
2023/03/01 01:57:23;;;;;;;;;;;4.10;67.20;;;;;;5116574;28;20309;-89
2023/03/01 01:59:53;;;;;;;;;;;4.20;67.30;;;;;;5116445;28;20015;-89
2023/03/01 02:02:19;;;;;;;;;;;4.20;67.10;;;;;;5112523;28;19949;-89
2023/03/01 02:04:45;;;;;;;;;;;4.20;66.90;;;;;;5116459;28;20030;-89
2023/03/01 02:07:15;;;;;;;;;;;4.30;67.10;;;;;;5116417;28;19992;-88
2023/03/01 02:09:43;;;;;;;;;;;4.30;67.00;;;;;;5116579;28;19937;-89
2023/03/01 02:12:09;;;;;;;;;;;4.40;66.60;;;;;;5096965;28;20435;-89
2023/03/01 02:14:35;;;;;;;;;;;4.40;66.50;;;;;;5095853;28;19940;-89
2023/03/01 02:17:00;;;;;;;;;;;4.50;66.90;;;;;;5077549;28;19939;-89
2023/03/01 02:19:38;;;;;;;;;;;4.40;66.80;;;;;;5095747;28;19935;-89
2023/03/01 02:22:06;;;;;;;;;;;4.40;67.00;;;;;;5113769;28;19965;-89
2023/03/01 02:24:36;;;;;;;;;;;4.40;66.90;;;;;;5116084;28;19938;-90
2023/03/01 02:27:02;;;;;;;;;;;4.50;66.70;;;;;;5116024;28;19985;-89
2023/03/01 02:29:28;;;;;;;;;;;4.50;66.80;;;;;;5116145;28;19969;-88
2023/03/01 02:31:56;;;;;;;;;;;4.50;66.80;;;;;;5099040;28;19961;-88
2023/03/01 02:34:24;;;;;;;;;;;4.50;67.00;;;;;;5095475;28;19943;-89
2023/03/01 02:36:55;;;;;;;;;;;4.50;67.10;;;;;;5095401;28;19936;-89
2023/03/01 02:39:23;;;;;;;;;;;4.50;67.00;;;;;;5095340;28;19943;-90
2023/03/01 02:41:53;;;;;;;;;;;4.50;67.20;;;;;;5110341;28;19951;-88
2023/03/01 02:44:19;;;;;;;;;;;4.50;67.30;;;;;;5115895;28;19977;-87
2023/03/01 02:46:49;;;;;;;;;;;4.50;67.10;;;;;;5115543;28;19935;-87
2023/03/01 02:49:17;;;;;;;;;;;4.60;66.80;;;;;;5115434;28;19946;-88
2023/03/01 02:52:06;;;;;;;;;;;4.70;67.20;;;;;;5100675;28;19964;-88
2023/03/01 02:54:36;;;;;;;;;;;4.70;66.60;;;;;;5086263;28;19941;-88
2023/03/01 02:57:02;;;;;;;;;;;4.80;66.40;;;;;;5094615;28;19942;-87
2023/03/01 02:59:31;;;;;;;;;;;4.90;66.30;;;;;;5094948;28;19936;-88
2023/03/01 03:01:56;;;;;;;;;;;4.90;65.80;;;;;;5110747;28;19950;-88
2023/03/01 03:04:22;;;;;;;;;;;5.00;65.50;;;;;;5096801;28;19974;-88
2023/03/01 03:06:49;;;;;;;;;;;5.00;65.40;;;;;;5115215;28;19944;-88
2023/03/01 03:09:14;;;;;;;;;;;5.10;65.20;;;;;;5115142;28;19940;-88
2023/03/01 03:11:41;;;;;;;;;;;5.00;65.20;;;;;;5101191;28;20433;-89
2023/03/01 03:14:12;;;;;;;;;;;5.20;65.20;;;;;;5094881;28;19941;-89
2023/03/01 03:16:45;;;;;;;;;;;5.20;65.00;;;;;;5094859;28;19990;-88
2023/03/01 03:19:11;;;;;;;;;;;5.20;64.60;;;;;;5094544;28;19986;-89
2023/03/01 03:21:37;;;;;;;;;;;5.30;64.70;;;;;;5107197;28;20039;-90
2023/03/01 03:24:02;;;;;;;;;;;5.30;64.50;;;;;;5114869;28;20308;-89
2023/03/01 03:26:28;;;;;;;;;;;5.30;64.90;;;;;;5114805;28;19935;-89
2023/03/01 03:28:53;;;;;;;;;;;5.30;64.90;;;;;;5114803;28;20433;-89
2023/03/01 03:31:19;;;;;;;;;;;5.30;65.00;;;;;;5104455;28;19946;-89
2023/03/01 03:33:44;;;;;;;;;;;5.30;64.80;;;;;;5094299;28;19941;-89
2023/03/01 03:36:17;;;;;;;;;;;5.30;64.90;;;;;;5094192;28;19939;-90
2023/03/01 03:38:43;;;;;;;;;;;5.30;64.90;;;;;;5094492;28;19935;-89
2023/03/01 03:41:09;;;;;;;;;;;5.30;64.90;;;;;;5102588;28;19943;-89
2023/03/01 03:43:36;;;;;;;;;;;5.20;64.80;;;;;;5114485;28;20123;-90
2023/03/01 03:46:05;;;;;;;;;;;5.20;64.70;;;;;;5114379;28;19946;-89
2023/03/01 03:48:34;;;;;;;;;;;5.20;65.00;;;;;;5114399;28;19985;-89
2023/03/01 03:51:00;;;;;;;;;;;5.00;65.10;;;;;;5113948;28;19984;-90
2023/03/01 03:53:27;;;;;;;;;;;5.00;65.00;;;;;;5114219;28;20428;-89
2023/03/01 03:55:52;;;;;;;;;;;5.00;65.00;;;;;;5114292;28;20035;-89
2023/03/01 03:58:19;;;;;;;;;;;5.00;65.20;;;;;;5114277;28;19987;-89
2023/03/01 04:00:45;;;;;;;;;;;4.90;65.10;;;;;;5113041;28;19943;-89
2023/03/01 04:03:11;;;;;;;;;;;4.90;65.20;;;;;;5113920;28;19999;-90
2023/03/01 04:05:38;;;;;;;;;;;4.80;65.40;;;;;;5114133;28;19944;-89
2023/03/01 04:08:06;;;;;;;;;;;4.80;65.50;;;;;;5113978;28;20393;-89
2023/03/01 04:10:42;;;;;;;;;;;4.80;65.50;;;;;;5113718;28;19944;-88
2023/03/01 04:13:10;;;;;;;;;;;4.70;65.50;;;;;;5113829;28;20428;-89
2023/03/01 04:15:36;;;;;;;;;;;4.80;65.40;;;;;;5113924;28;19941;-90
2023/03/01 04:18:02;;;;;;;;;;;4.80;65.20;;;;;;5113910;28;19936;-89
2023/03/01 04:20:29;;;;;;;;;;;4.90;65.00;;;;;;5111902;28;19941;-88
2023/03/01 04:22:59;;;;;;;;;;;4.70;65.20;;;;;;5098818;28;19986;-89
2023/03/01 04:25:25;;;;;;;;;;;4.70;66.50;;;;;;5113796;28;20289;-89
2023/03/01 04:27:50;;;;;;;;;;;4.60;66.80;;;;;;5095497;28;19950;-89
2023/03/01 04:30:16;;;;;;;;;;;4.50;66.80;;;;;;5113555;28;19944;-88
2023/03/01 04:32:41;;;;;;;;;;;4.60;66.60;;;;;;5093446;28;19960;-89
2023/03/01 04:35:07;;;;;;;;;;;4.60;66.50;;;;;;5093360;28;19936;-90
2023/03/01 04:37:34;;;;;;;;;;;4.70;66.10;;;;;;5093281;28;20413;-89
2023/03/01 04:40:00;;;;;;;;;;;4.70;65.90;;;;;;5075218;28;19980;-88
2023/03/01 04:42:26;;;;;;;;;;;4.90;65.50;;;;;;5094284;28;20418;-89
2023/03/01 04:44:52;;;;;;;;;;;5.00;65.10;;;;;;5093482;28;19949;-89
2023/03/01 04:47:17;;;;;;;;;;;5.10;64.70;;;;;;5085311;28;20031;-89
2023/03/01 04:49:43;;;;;;;;;;;5.10;64.20;;;;;;5093195;28;19994;-88
2023/03/01 04:52:09;;;;;;;;;;;5.30;63.80;;;;;;5107805;28;19967;-89
2023/03/01 04:54:35;;;;;;;;;;;5.30;63.60;;;;;;5113501;28;19989;-89
2023/03/01 04:57:01;;;;;;;;;;;5.40;63.50;;;;;;5113469;28;20412;-89
2023/03/01 04:59:27;;;;;;;;;;;5.30;64.10;;;;;;5113394;28;19940;-89
2023/03/01 05:01:56;;;;;;;;;;;5.40;63.80;;;;;;5100668;28;20464;-89
2023/03/01 05:04:22;;;;;;;;;;;5.40;64.10;;;;;;5092873;28;20025;-89
2023/03/01 05:06:48;;;;;;;;;;;5.40;63.30;;;;;;5093040;28;20332;-90
2023/03/01 05:09:13;;;;;;;;;;;5.50;63.50;;;;;;5092939;28;20085;-89
2023/03/01 05:11:39;;;;;;;;;;;5.40;63.60;;;;;;5103028;28;19966;-89
2023/03/01 05:14:05;;;;;;;;;;;5.50;63.60;;;;;;5113301;28;19932;-89
2023/03/01 05:16:31;;;;;;;;;;;5.60;63.40;;;;;;5113258;28;20020;-89
2023/03/01 05:18:57;;;;;;;;;;;5.70;63.00;;;;;;5114944;28;20082;-89
2023/03/01 05:21:23;;;;;;;;;;;5.80;62.30;;;;;;5109142;28;19944;-89
2023/03/01 05:23:48;;;;;;;;;;;5.90;61.90;;;;;;5097133;28;19940;-89
2023/03/01 05:26:14;;;;;;;;;;;5.90;61.80;;;;;;5096823;28;19938;-89
2023/03/01 05:28:40;;;;;;;;;;;5.90;61.70;;;;;;5096659;28;19940;-89
2023/03/01 05:31:09;;;;;;;;;;;5.90;62.30;;;;;;5101581;28;20038;-90
2023/03/01 05:33:38;;;;;;;;;;;5.90;62.30;;;;;;5117032;28;20023;-89
2023/03/01 05:36:03;;;;;;;;;;;5.90;62.40;;;;;;5116982;28;20002;-89
2023/03/01 05:38:29;;;;;;;;;;;5.90;62.30;;;;;;5116896;28;19975;-89
2023/03/01 05:40:55;;;;;;;;;;;6.00;62.10;;;;;;5112966;28;19988;-89
2023/03/01 05:43:20;;;;;;;;;;;6.00;62.00;;;;;;5096461;28;19940;-89
2023/03/01 05:45:46;;;;;;;;;;;6.10;61.90;;;;;;5096396;28;19945;-89
2023/03/01 05:48:12;;;;;;;;;;;6.10;62.00;;;;;;5096537;28;19948;-88
2023/03/01 05:50:39;;;;;;;;;;;6.10;61.70;;;;;;5097056;28;19940;-89
2023/03/01 05:53:12;;;;;;;;;;;6.10;61.60;;;;;;5098212;28;19968;-89
2023/03/01 05:55:38;;;;;;;;;;;6.20;61.60;;;;;;5116631;28;19941;-90
2023/03/01 05:58:06;;;;;;;;;;;6.20;61.70;;;;;;5116501;28;19942;-89
2023/03/01 06:00:31;;;;;;;;;;;6.20;61.60;;;;;;5114003;28;20391;-89
2023/03/01 06:02:57;;;;;;;;;;;6.20;61.60;;;;;;5095259;28;19980;-89
2023/03/01 06:05:23;;;;;;;;;;;6.20;61.90;;;;;;5091410;28;19946;-88
2023/03/01 06:07:50;;;;;;;;;;;6.30;61.50;;;;;;5095332;28;19951;-89
2023/03/01 06:10:16;;;;;;;;;;;6.40;61.20;;;;;;5095541;28;19949;-90
2023/03/01 06:12:42;;;;;;;;;;;6.40;60.60;;;;;;5096068;28;19981;-89
2023/03/01 06:15:09;;;;;;;;;;;6.50;60.40;;;;;;5095788;28;20391;-89
2023/03/01 06:17:37;;;;;;;;;;;6.50;60.50;;;;;;5095352;28;19980;-89
2023/03/01 06:20:03;;;;;;;;;;;6.50;60.50;;;;;;5095571;28;19996;-89
2023/03/01 06:22:29;;;;;;;;;;;6.60;60.00;;;;;;5093568;28;20521;-89
2023/03/01 06:24:54;;;;;;;;;;;6.70;60.00;;;;;;5093333;28;20044;-89
2023/03/01 06:27:20;;;;;;;;;;;6.80;60.00;;;;;;5099576;28;20027;-89
2023/03/01 06:29:45;;;;;;;;;;;6.90;59.70;;;;;;5100568;28;20037;-89
2023/03/01 06:32:11;;;;;;;;;;;7.00;59.40;;;;;;5096188;28;20004;-89
2023/03/01 06:34:36;;;;;;;;;;;7.00;58.80;;;;;;5099697;28;19988;-89
2023/03/01 06:37:04;;;;;;;;;;;6.90;58.70;;;;;;5095310;28;19951;-89
2023/03/01 06:39:30;;;;;;;;;;;7.00;59.20;;;;;;5095056;28;19987;-89
2023/03/01 06:41:56;;;;;;;;;;;7.10;58.80;;;;;;5105518;28;20038;-89
2023/03/01 06:44:22;;;;;;;;;;;7.00;58.80;;;;;;5104828;28;20396;-89
2023/03/01 06:46:47;;;;;;;;;;;7.10;58.60;;;;;;5099836;28;20122;-89
2023/03/01 06:49:13;;;;;;;;;;;7.10;58.60;;;;;;5103791;28;19997;-89
2023/03/01 06:51:38;;;;;;;;;;;7.10;58.70;;;;;;5094297;28;20025;-90
2023/03/01 06:54:04;;;;;;;;;;;7.10;59.20;;;;;;5098203;28;19960;-88
2023/03/01 06:56:31;;;;;;;;;;;7.10;59.20;;;;;;5095243;28;19958;-89
2023/03/01 06:58:56;;;;;;;;;;;7.20;58.80;;;;;;5097319;28;19986;-89
2023/03/01 07:01:22;;;;;;;;;;;7.20;58.30;;;;;;5088818;28;19991;-90
2023/03/01 07:03:47;;;;;;;;;;;7.10;58.80;;;;;;5098829;22;20022;-90
2023/03/01 07:06:13;;;;;;;;;;;6.90;58.90;;;;;;5092754;28;19994;-89
2023/03/01 07:08:38;;;;;;;;;;;6.90;59.10;;;;;;5095311;28;19947;-89
2023/03/01 07:11:05;;;;;;;;;;;6.80;58.90;;;;;;5090430;28;19938;-89
2023/03/01 07:13:31;;;;;;;;;;;6.80;59.10;;;;;;5096327;28;20415;-90
2023/03/01 07:15:56;;;;;;;;;;;6.90;58.90;;;;;;5084251;28;19953;-90
2023/03/01 07:18:22;;;;;;;;;;;7.00;59.00;;;;;;5093920;28;20419;-89
2023/03/01 07:20:48;;;;;;;;;;;7.10;58.80;;;;;;5097274;28;19953;-90
2023/03/01 07:23:13;;;;;;;;;;;7.10;59.20;;;;;;5102342;28;20388;-90
2023/03/01 07:25:39;;;;;;;;;;;7.20;59.00;;;;;;5102668;28;19985;-90
2023/03/01 07:28:04;;;;;;;;;;;7.30;57.90;;;;;;5093187;28;19952;-90
2023/03/01 07:30:30;;;;;;;;;;;7.40;58.00;;;;;;5093578;28;19995;-90
2023/03/01 07:32:56;;;;;;;;;;;7.40;57.90;;;;;;5085470;28;20435;-89
2023/03/01 07:35:22;;;;;;;;;;;7.40;57.80;;;;;;5094984;28;19943;-90
2023/03/01 07:37:48;;;;;;;;;;;7.40;57.70;;;;;;5106272;28;20407;-89
2023/03/01 07:40:14;;;;;;;;;;;7.50;57.40;;;;;;5091550;28;20024;-90
2023/03/01 07:42:39;;;;;;;;;;;7.50;58.10;;;;;;5093575;28;19961;-89
2023/03/01 07:45:05;;;;;;;;;;;7.60;58.00;;;;;;5095796;28;19941;-90
2023/03/01 07:47:31;;;;;;;;;;;7.70;57.60;;;;;;5095810;28;20397;-90
2023/03/01 07:49:56;;;;;;;;;;;7.90;56.60;;;;;;5093009;28;19943;-89
2023/03/01 07:52:22;;;;;;;;;;;8.00;56.00;;;;;;5095500;28;19985;-90
2023/03/01 07:54:47;;;;;;;;;;;8.20;56.60;;;;;;5105840;28;19959;-89
2023/03/01 07:57:13;;;;;;;;;;;8.20;55.60;;;;;;5109903;28;19944;-90
2023/03/01 07:59:38;;;;;;;;;;;8.30;55.90;;;;;;5107885;28;19953;-89
2023/03/01 08:02:04;;;;;;;;;;;8.30;55.20;;;;;;5109033;28;19970;-90
2023/03/01 08:04:29;;;;;;;;;;;8.30;55.60;;;;;;5110377;28;20014;-90
2023/03/01 08:06:55;;;;;;;;;;;8.30;55.60;;;;;;5108515;28;20050;-90
2023/03/01 08:09:21;;;;;;;;;;;8.30;55.70;;;;;;5102087;28;19949;-90
2023/03/01 08:11:46;;;;;;;;;;;8.30;55.70;;;;;;5101272;28;19968;-89
2023/03/01 08:14:12;;;;;;;;;;;8.30;56.20;;;;;;5100872;28;19945;-89
2023/03/01 08:16:37;;;;;;;;;;;8.30;55.20;;;;;;5108634;28;19948;-90
2023/03/01 08:19:04;;;;;;;;;;;8.30;55.40;;;;;;5107031;28;20370;-90
2023/03/01 08:21:29;;;;;;;;;;;8.40;54.50;;;;;;5102264;28;19979;-90
2023/03/01 08:23:55;;;;;;;;;;;8.40;55.40;;;;;;5107100;28;20345;-89
2023/03/01 08:26:21;;;;;;;;;;;8.40;55.10;;;;;;5107383;28;19987;-89
2023/03/01 08:28:47;;;;;;;;;;;8.40;55.30;;;;;;5106435;28;19953;-89
2023/03/01 08:31:18;;;;;;;;;;;8.50;55.00;;;;;;5084433;28;19948;-89
2023/03/01 08:33:44;;;;;;;;;;;8.50;55.40;;;;;;5101849;28;19950;-90
2023/03/01 08:36:09;;;;;;;;;;;8.50;55.60;;;;;;5109696;28;19957;-90
2023/03/01 08:38:35;;;;;;;;;;;8.40;55.10;;;;;;5108411;27;19943;-89
2023/03/01 08:41:01;;;;;;;;;;;8.40;55.70;;;;;;5107578;28;20404;-89
2023/03/01 08:43:27;;;;;;;;;;;8.40;55.70;;;;;;5104255;28;19945;-90
2023/03/01 08:45:52;;;;;;;;;;;8.40;56.20;;;;;;5107036;28;19954;-90
2023/03/01 08:48:18;;;;;;;;;;;8.40;55.50;;;;;;5108376;28;19943;-89
2023/03/01 08:50:43;;;;;;;;;;;8.50;56.00;;;;;;5103080;28;19952;-90
2023/03/01 08:53:09;;;;;;;;;;;8.60;55.20;;;;;;5105825;28;19980;-89
2023/03/01 08:55:34;;;;;;;;;;;8.60;55.00;;;;;;5107263;28;20423;-89
2023/03/01 08:58:00;;;;;;;;;;;8.70;55.60;;;;;;5107955;27;19962;-89
2023/03/01 09:00:26;;;;;;;;;;;8.80;55.80;;;;;;5110689;28;19998;-89
2023/03/01 09:02:51;;;;;;;;;;;8.90;56.20;;;;;;5113699;27;19976;-89
2023/03/01 09:05:17;;;;;;;;;;;9.00;55.50;;;;;;5098636;27;20036;-89
2023/03/01 09:07:42;;;;;;;;;;;9.20;55.80;;;;;;5118008;27;19943;-90
2023/03/01 09:10:08;;;;;;;;;;;9.40;55.20;;;;;;5113102;27;19990;-89
2023/03/01 09:12:34;;;;;;;;;;;9.40;55.10;;;;;;5110428;27;20393;-90
2023/03/01 09:14:59;;;;;;;;;;;9.50;54.80;;;;;;5112382;27;19949;-89
2023/03/01 09:17:25;;;;;;;;;;;9.60;54.40;;;;;;5110442;27;19948;-89
2023/03/01 09:19:50;;;;;;;;;;;9.80;55.10;;;;;;5115768;27;20058;-89
2023/03/01 09:22:16;;;;;;;;;;;10.10;53.90;;;;;;5106948;28;20401;-89
2023/03/01 09:24:41;;;;;;;;;;;10.40;52.70;;;;;;5111013;27;19997;-89
2023/03/01 09:27:08;;;;;;;;;;;10.40;52.30;;;;;;5117673;27;19980;-89
2023/03/01 09:29:37;;;;;;;;;;;10.60;52.10;;;;;;5126337;27;20450;-89
2023/03/01 09:32:03;;;;;;;;;;;10.70;52.00;;;;;;5123935;27;20714;-89
2023/03/01 09:34:28;;;;;;;;;;;10.80;51.60;;;;;;5118456;27;20217;-89
2023/03/01 09:36:54;;;;;;;;;;;10.80;52.10;;;;;;5117523;27;19938;-89
2023/03/01 09:39:20;;;;;;;;;;;10.80;52.10;;;;;;5116739;27;20373;-89
2023/03/01 09:41:57;;;;;;;;;;;10.90;53.40;;;;;;5122894;27;19946;-89
2023/03/01 09:44:38;;;;;;;;;;;10.90;51.70;;;;;;5111815;27;20043;-89
2023/03/01 09:47:04;;;;;;;;;;;10.90;52.60;;;;;;5101239;28;20431;-89
2023/03/01 09:49:31;;;;;;;;;;;11.00;53.40;;;;;;5109573;27;20023;-89
2023/03/01 09:52:03;;;;;;;;;;;11.10;53.20;;;;;;5109283;27;19960;-89
2023/03/01 09:54:28;;;;;;;;;;;11.20;52.10;;;;;;5109691;27;19941;-89
2023/03/01 09:57:00;;;;;;;;;;;11.20;52.00;;;;;;5107463;27;19946;-90
2023/03/01 09:59:27;;;;;;;;;;;11.40;51.90;;;;;;5108254;27;19944;-90
2023/03/01 10:01:53;;;;;;;;;;;11.50;53.20;;;;;;5108539;27;19963;-90
2023/03/01 10:04:37;;;;;;;;;;;11.80;50.70;;;;;;5108215;27;19975;-90
2023/03/01 10:07:09;;;;;;;;;;;12.00;51.40;;;;;;5110031;28;19943;-90
2023/03/01 10:09:35;;;;;;;;;;;12.30;49.60;;;;;;5111267;27;20033;-90
2023/03/01 10:12:02;;;;;;;;;;;12.20;48.60;;;;;;5106591;27;20065;-90
2023/03/01 10:14:31;;;;;;;;;;;12.10;49.30;;;;;;5110050;27;20407;-89
2023/03/01 10:17:02;;;;;;;;;;;12.10;50.10;;;;;;5110451;28;19959;-89
2023/03/01 10:19:31;;;;;;;;;;;12.20;49.60;;;;;;5113361;27;20009;-89
2023/03/01 10:22:00;;;;;;;;;;;12.30;50.00;;;;;;5109882;27;19991;-89
2023/03/01 10:24:26;;;;;;;;;;;12.30;49.50;;;;;;5112626;28;19976;-89
2023/03/01 10:27:02;;;;;;;;;;;12.30;48.90;;;;;;5094175;28;19945;-89
2023/03/01 10:29:48;;;;;;;;;;;12.30;50.00;;;;;;5107010;27;19946;-89
2023/03/01 10:32:14;;;;;;;;;;;12.30;49.80;;;;;;5113184;28;19960;-90
2023/03/01 10:34:39;;;;;;;;;;;12.50;50.60;;;;;;5113531;28;19959;-90
2023/03/01 10:37:13;;;;;;;;;;;12.90;49.90;;;;;;5112911;28;20033;-89
2023/03/01 10:39:54;;;;;;;;;;;13.00;47.90;;;;;;5112476;28;19945;-90
2023/03/01 10:42:25;;;;;;;;;;;13.00;48.30;;;;;;5109468;27;19950;-90
2023/03/01 10:44:50;;;;;;;;;;;13.10;48.40;;;;;;5103366;27;19961;-89
2023/03/01 10:47:24;;;;;;;;;;;12.90;48.30;;;;;;5112235;28;19943;-89
2023/03/01 10:49:58;;;;;;;;;;;12.70;49.30;;;;;;5105089;28;19951;-89
2023/03/01 10:52:26;;;;;;;;;;;12.60;49.00;;;;;;5112402;28;19971;-89
2023/03/01 10:54:56;;;;;;;;;;;12.50;50.60;;;;;;5109833;28;20425;-89
2023/03/01 10:57:28;;;;;;;;;;;12.40;51.00;;;;;;5114491;28;19947;-89
2023/03/01 11:00:01;;;;;;;;;;;12.30;51.90;;;;;;5114903;28;19943;-89
2023/03/01 11:02:30;;;;;;;;;;;12.30;52.10;;;;;;5106434;27;19966;-90
2023/03/01 11:05:23;;;;;;;;;;;12.20;51.70;;;;;;5084122;28;19949;-90
2023/03/01 11:07:53;;;;;;;;;;;12.10;51.60;;;;;;5099707;28;19975;-89
2023/03/01 11:10:20;;;;;;;;;;;12.10;52.00;;;;;;5109537;28;19947;-90
2023/03/01 11:12:45;;;;;;;;;;;12.00;52.20;;;;;;5114926;28;19959;-89
2023/03/01 11:15:22;;;;;;;;;;;11.90;51.50;;;;;;5114068;28;19992;-89
2023/03/01 11:17:47;;;;;;;;;;;11.80;51.70;;;;;;5114318;28;20413;-89
2023/03/01 11:20:13;;;;;;;;;;;11.70;53.30;;;;;;5114730;28;19941;-90
2023/03/01 11:22:47;;;;;;;;;;;11.80;52.10;;;;;;5096693;28;20059;-89
2023/03/01 11:25:14;;;;;;;;;;;11.70;51.40;;;;;;5114952;28;20029;-89
2023/03/01 11:27:43;;;;;;;;;;;11.50;51.70;;;;;;5114778;28;19936;-89
2023/03/01 11:30:27;;;;;;;;;;;11.40;51.10;;;;;;5114474;28;19950;-89
2023/03/01 11:33:08;;;;;;;;;;;11.30;51.80;;;;;;5114620;28;19963;-89
2023/03/01 11:35:37;;;;;;;;;;;11.20;52.90;;;;;;5114732;28;20033;-89
2023/03/01 11:38:09;;;;;;;;;;;11.10;53.40;;;;;;5114413;28;19990;-89
2023/03/01 11:40:44;;;;;;;;;;;11.10;53.10;;;;;;5114625;28;19939;-89
2023/03/01 11:43:10;;;;;;;;;;;11.00;53.20;;;;;;5114570;28;19944;-89
2023/03/01 11:45:55;;;;;;;;;;;11.00;53.40;;;;;;5114506;28;19937;-89
2023/03/01 11:48:32;;;;;;;;;;;11.00;54.20;;;;;;5052162;28;19953;-90
2023/03/01 11:51:01;;;;;;;;;;;11.00;53.00;;;;;;5094043;28;19939;-89
2023/03/01 11:53:38;;;;;;;;;;;11.00;52.80;;;;;;5093877;28;19969;-89
2023/03/01 11:56:04;;;;;;;;;;;11.00;52.90;;;;;;5093912;28;19937;-89
2023/03/01 11:58:44;;;;;;;;;;;11.10;51.60;;;;;;5107669;28;20039;-89
2023/03/01 12:01:24;;;;;;;;;;;11.10;52.60;;;;;;5114089;28;19950;-89
2023/03/01 12:04:22;;;;;;;;;;;11.10;51.90;;;;;;5114061;28;19986;-89
2023/03/01 12:06:57;;;;;;;;;;;11.00;51.60;;;;;;5057936;28;19952;-89
2023/03/01 12:09:44;;;;;;;;;;;10.80;53.20;;;;;;5093991;28;19970;-89
2023/03/01 12:12:10;;;;;;;;;;;10.80;52.40;;;;;;5093587;28;19938;-89
2023/03/01 12:14:54;;;;;;;;;;;10.60;52.10;;;;;;5093661;28;19960;-88
2023/03/01 12:17:19;;;;;;;;;;;10.60;52.30;;;;;;5107393;28;19951;-89
2023/03/01 12:19:57;;;;;;;;;;;10.50;53.30;;;;;;5112784;28;20045;-89
2023/03/01 12:22:25;;;;;;;;;;;10.40;53.10;;;;;;5112113;28;19947;-89
2023/03/01 12:24:51;;;;;;;;;;;10.40;54.00;;;;;;5110639;28;20436;-89
2023/03/01 12:27:26;;;;;;;;;;;10.40;53.90;;;;;;5110237;28;19956;-89
2023/03/01 12:30:14;;;;;;;;;;;10.40;53.90;;;;;;5103446;28;19940;-89
2023/03/01 12:32:46;;;;;;;;;;;10.40;53.90;;;;;;5099531;28;21481;-89
2023/03/01 12:35:30;;;;;;;;;;;10.30;54.40;;;;;;5109186;28;19949;-89
2023/03/01 12:38:07;;;;;;;;;;;10.30;54.00;;;;;;5105290;28;20332;-89
2023/03/01 12:40:38;;;;;;;;;;;10.10;54.50;;;;;;5110361;28;19984;-89
2023/03/01 12:43:27;;;;;;;;;;;10.10;53.60;;;;;;5111314;28;20015;-89
2023/03/01 12:46:11;;;;;;;;;;;10.10;53.90;;;;;;5107055;28;19944;-89
2023/03/01 12:48:48;;;;;;;;;;;10.00;54.50;;;;;;5111782;28;20407;-89
2023/03/01 12:51:15;;;;;;;;;;;10.00;54.30;;;;;;5109647;28;19942;-89
2023/03/01 12:53:46;;;;;;;;;;;10.00;54.20;;;;;;5109822;28;19969;-89
2023/03/01 12:56:13;;;;;;;;;;;10.10;54.30;;;;;;5100989;28;20429;-89
2023/03/01 12:58:43;;;;;;;;;;;10.10;54.10;;;;;;5110125;28;19973;-89
2023/03/01 13:01:26;;;;;;;;;;;10.10;54.30;;;;;;5112265;28;19941;-89
2023/03/01 13:04:11;;;;;;;;;;;10.10;54.60;;;;;;5110543;28;19974;-89
2023/03/01 13:06:44;;;;;;;;;;;10.20;55.90;;;;;;5107651;28;20372;-89
2023/03/01 13:09:19;;;;;;;;;;;10.20;57.20;;;;;;5109072;28;19942;-90
2023/03/01 13:11:44;;;;;;;;;;;10.00;57.60;;;;;;5111996;28;20009;-89
2023/03/01 13:14:25;;;;;;;;;;;9.90;59.40;;;;;;5112863;28;19999;-89
2023/03/01 13:16:54;;;;;;;;;;;9.90;59.90;;;;;;5092534;28;20401;-89
2023/03/01 13:19:21;;;;;;;;;;;9.70;62.40;;;;;;5106276;28;19953;-89
2023/03/01 13:21:48;;;;;;;;;;;9.60;64.00;;;;;;5089621;28;20027;-89
2023/03/01 13:24:33;;;;;;;;;;;9.40;65.00;;;;;;5112234;28;19945;-89
2023/03/01 13:27:04;;;;;;;;;;;9.40;65.20;;;;;;5105699;28;20021;-89
2023/03/01 13:29:43;;;;;;;;;;;9.30;66.40;;;;;;5110831;28;19946;-89
2023/03/01 13:32:18;;;;;;;;;;;9.10;66.50;;;;;;5112033;28;19958;-89
2023/03/01 13:34:45;;;;;;;;;;;9.20;66.10;;;;;;5095604;28;19993;-89
2023/03/01 13:37:18;;;;;;;;;;;9.20;67.30;;;;;;5083771;28;19966;-89
2023/03/01 13:39:43;;;;;;;;;;;9.20;67.60;;;;;;5102020;28;19937;-89
2023/03/01 13:42:27;;;;;;;;;;;9.20;67.70;;;;;;5107128;27;19997;-89
2023/03/01 13:44:53;;;;;;;;;;;9.20;68.70;;;;;;5110044;28;19951;-89
2023/03/01 13:47:18;;;;;;;;;;;9.20;68.10;;;;;;5109022;27;19949;-89
2023/03/01 13:49:47;;;;;;;;;;;9.20;68.70;;;;;;5113186;28;20032;-89
2023/03/01 13:52:31;;;;;;;;;;;9.20;68.80;;;;;;5112062;28;19954;-89
2023/03/01 13:54:58;;;;;;;;;;;9.30;67.90;;;;;;5116325;28;19968;-89
2023/03/01 13:57:29;;;;;;;;;;;9.40;67.70;;;;;;5115995;28;19949;-89
2023/03/01 13:59:54;;;;;;;;;;;9.40;67.20;;;;;;5115105;28;20035;-89
2023/03/01 14:02:20;;;;;;;;;;;9.40;67.80;;;;;;5115939;28;19985;-89
2023/03/01 14:04:55;;;;;;;;;;;9.50;66.40;;;;;;5115381;28;20367;-89
2023/03/01 14:07:24;;;;;;;;;;;9.60;66.50;;;;;;5114210;28;19945;-89
2023/03/01 14:09:54;;;;;;;;;;;9.60;66.40;;;;;;5097580;28;20497;-89
2023/03/01 14:12:29;;;;;;;;;;;9.60;67.30;;;;;;5113582;28;19968;-89
2023/03/01 14:14:59;;;;;;;;;;;9.60;67.80;;;;;;5110431;28;20308;-89
2023/03/01 14:17:47;;;;;;;;;;;9.50;68.30;;;;;;5110802;28;20315;-90
2023/03/01 14:20:16;;;;;;;;;;;9.60;67.50;;;;;;5112215;28;20465;-89
2023/03/01 14:22:42;;;;;;;;;;;9.70;66.80;;;;;;5110782;27;20884;-90
2023/03/01 14:25:23;;;;;;;;;;;9.80;67.00;;;;;;5112847;28;19942;-89
2023/03/01 14:28:09;;;;;;;;;;;9.90;67.50;;;;;;5112673;28;19940;-89
2023/03/01 14:30:37;;;;;;;;;;;9.90;66.50;;;;;;5095448;28;19990;-89
2023/03/01 14:33:06;;;;;;;;;;;9.90;66.30;;;;;;5109580;28;19965;-89